Date,TemperatureHighF,TemperatureAvgF,TemperatureLowF,DewpointHighF,DewpointAvgF,DewpointLowF,HumidityHigh,HumidityAvg,HumidityLow,PressureMaxIn,PressureMinIn,WindSpeedMaxMPH,WindSpeedAvgMPH,GustSpeedMaxMPH,PrecipitationSumIn
2013-2-7,44.0,38.3,36.0,-99.9,-99.9,-99.9,0,0,100,0.00,40.00,4,2,0,0.00
2013-2-8,38.0,31.8,25.0,-99.9,-99.9,-99.9,0,0,100,0.00,40.00,16,4,0,0.00
2013-2-9,37.0,28.3,21.0,-99.9,-99.9,-99.9,0,0,100,0.00,40.00,7,2,0,0.00
2013-2-10,48.0,38.8,29.0,-99.9,-99.9,-99.9,0,0,100,0.00,40.00,9,3,0,0.00
2013-2-11,49.0,37.8,31.0,-99.9,-99.9,-99.9,0,0,100,0.00,40.00,16,8,0,0.00
2013-2-12,40.0,31.7,28.0,-99.9,-99.9,-99.9,0,0,100,0.00,40.00,12,4,0,0.00
2013-2-13,44.0,32.9,25.0,-99.9,-99.9,-99.9,0,0,100,0.00,40.00,5,1,0,0.00
2013-2-14,44.0,36.9,33.0,-99.9,-99.9,-99.9,0,0,100,0.00,40.00,14,5,0,0.00
2013-2-15,33.0,29.7,24.0,-99.9,-99.9,-99.9,0,0,100,0.00,40.00,10,2,0,0.00
2013-2-16,25.0,20.8,15.0,-99.9,-99.9,-99.9,0,0,100,0.00,40.00,11,2,0,0.00
2013-2-17,30.0,20.0,12.0,-99.9,-99.9,-99.9,0,0,100,0.00,40.00,5,1,0,0.00
2013-2-18,54.0,38.1,23.0,-99.9,-99.9,-99.9,0,0,100,0.00,40.00,14,5,0,0.00
2013-2-19,45.0,28.1,16.0,-99.9,-99.9,-99.9,0,0,100,0.00,40.00,19,8,0,0.00
2013-2-20,23.0,18.3,12.0,-99.9,-99.9,-99.9,0,0,100,0.00,40.00,9,4,0,0.00
2013-2-21,28.0,24.0,21.0,-99.9,-99.9,-99.9,0,0,100,0.00,40.00,11,4,0,0.00
2013-2-22,35.0,29.5,22.0,-99.9,-99.9,-99.9,0,0,100,0.00,40.00,16,4,0,0.00
2013-2-23,31.0,28.2,25.0,-99.9,-99.9,-99.9,0,0,100,0.00,40.00,9,3,0,0.00
2013-2-24,38.0,29.5,22.0,-99.9,-99.9,-99.9,0,0,100,0.00,40.00,9,2,0,0.00
2013-2-25,43.0,32.1,22.0,-99.9,-99.9,-99.9,0,0,100,0.00,40.00,9,2,0,0.00
2013-2-26,35.0,32.4,30.0,-99.9,-99.9,-99.9,0,0,100,0.00,40.00,14,5,0,0.00
2013-2-27,35.0,32.9,31.0,-99.9,-99.9,-99.9,0,0,100,0.00,40.00,10,4,0,0.00
2013-2-28,37.0,33.7,31.0,-99.9,-99.9,-99.9,0,0,100,0.00,40.00,7,3,0,0.00